sensor_id;sensor_type;location;lat;lon;timestamp;P1;durP1;ratioP1;P2;durP2;ratioP2
36709;SDS011;22694;51.040;3.684;2023-04-03T00:01:32;4.72;;;4.15;;
36709;SDS011;22694;51.040;3.684;2023-04-03T00:03:58;4.95;;;4.47;;
36709;SDS011;22694;51.040;3.684;2023-04-03T00:06:24;4.30;;;3.90;;
36709;SDS011;22694;51.040;3.684;2023-04-03T00:08:51;5.18;;;4.60;;
36709;SDS011;22694;51.040;3.684;2023-04-03T00:11:17;5.03;;;3.70;;
36709;SDS011;22694;51.040;3.684;2023-04-03T00:13:44;4.57;;;3.75;;
36709;SDS011;22694;51.040;3.684;2023-04-03T00:16:11;4.25;;;3.55;;
36709;SDS011;22694;51.040;3.684;2023-04-03T00:18:37;4.60;;;4.15;;
36709;SDS011;22694;51.040;3.684;2023-04-03T00:21:04;4.13;;;3.72;;
36709;SDS011;22694;51.040;3.684;2023-04-03T00:23:30;3.50;;;3.20;;
36709;SDS011;22694;51.040;3.684;2023-04-03T00:25:56;4.15;;;3.75;;
36709;SDS011;22694;51.040;3.684;2023-04-03T00:28:22;4.30;;;3.53;;
36709;SDS011;22694;51.040;3.684;2023-04-03T00:30:48;4.20;;;3.80;;
36709;SDS011;22694;51.040;3.684;2023-04-03T00:33:15;4.25;;;3.40;;
36709;SDS011;22694;51.040;3.684;2023-04-03T00:35:41;4.28;;;3.88;;
36709;SDS011;22694;51.040;3.684;2023-04-03T00:38:07;3.65;;;3.35;;
36709;SDS011;22694;51.040;3.684;2023-04-03T00:40:37;3.30;;;3.00;;
36709;SDS011;22694;51.040;3.684;2023-04-03T00:43:14;3.38;;;3.08;;
36709;SDS011;22694;51.040;3.684;2023-04-03T00:45:42;4.03;;;3.63;;
36709;SDS011;22694;51.040;3.684;2023-04-03T00:48:11;3.55;;;3.17;;
36709;SDS011;22694;51.040;3.684;2023-04-03T00:50:58;3.30;;;3.00;;
36709;SDS011;22694;51.040;3.684;2023-04-03T00:53:26;3.25;;;2.95;;
36709;SDS011;22694;51.040;3.684;2023-04-03T00:55:58;3.42;;;3.13;;
36709;SDS011;22694;51.040;3.684;2023-04-03T00:58:28;4.00;;;2.85;;
36709;SDS011;22694;51.040;3.684;2023-04-03T01:01:05;3.80;;;3.28;;
36709;SDS011;22694;51.040;3.684;2023-04-03T01:03:35;3.40;;;3.10;;
36709;SDS011;22694;51.040;3.684;2023-04-03T01:06:01;3.58;;;3.00;;
36709;SDS011;22694;51.040;3.684;2023-04-03T01:08:27;2.72;;;2.20;;
36709;SDS011;22694;51.040;3.684;2023-04-03T01:10:53;2.63;;;2.42;;
36709;SDS011;22694;51.040;3.684;2023-04-03T01:13:20;3.55;;;2.83;;
36709;SDS011;22694;51.040;3.684;2023-04-03T01:15:49;2.83;;;2.38;;
36709;SDS011;22694;51.040;3.684;2023-04-03T01:18:15;2.75;;;2.55;;
36709;SDS011;22694;51.040;3.684;2023-04-03T01:20:58;2.67;;;2.42;;
36709;SDS011;22694;51.040;3.684;2023-04-03T01:26:46;2.50;;;1.98;;
36709;SDS011;22694;51.040;3.684;2023-04-03T01:29:14;3.90;;;2.63;;
36709;SDS011;22694;51.040;3.684;2023-04-03T01:31:45;2.47;;;2.28;;
36709;SDS011;22694;51.040;3.684;2023-04-03T01:34:16;2.70;;;2.28;;
36709;SDS011;22694;51.040;3.684;2023-04-03T01:36:42;3.13;;;2.30;;
36709;SDS011;22694;51.040;3.684;2023-04-03T01:39:08;2.75;;;2.22;;
36709;SDS011;22694;51.040;3.684;2023-04-03T01:41:34;2.25;;;2.05;;
36709;SDS011;22694;51.040;3.684;2023-04-03T01:43:59;2.58;;;2.20;;
36709;SDS011;22694;51.040;3.684;2023-04-03T01:46:25;2.63;;;2.42;;
36709;SDS011;22694;51.040;3.684;2023-04-03T01:48:51;2.25;;;2.05;;
36709;SDS011;22694;51.040;3.684;2023-04-03T01:51:17;2.42;;;2.22;;
36709;SDS011;22694;51.040;3.684;2023-04-03T01:53:42;2.88;;;2.22;;
36709;SDS011;22694;51.040;3.684;2023-04-03T01:56:08;2.42;;;2.17;;
36709;SDS011;22694;51.040;3.684;2023-04-03T01:58:34;2.53;;;1.85;;
36709;SDS011;22694;51.040;3.684;2023-04-03T02:01:00;4.10;;;2.10;;
36709;SDS011;22694;51.040;3.684;2023-04-03T02:03:26;2.85;;;2.13;;
36709;SDS011;22694;51.040;3.684;2023-04-03T02:05:52;2.55;;;1.85;;
36709;SDS011;22694;51.040;3.684;2023-04-03T02:08:17;2.55;;;1.80;;
36709;SDS011;22694;51.040;3.684;2023-04-03T02:10:47;3.40;;;2.13;;
36709;SDS011;22694;51.040;3.684;2023-04-03T02:13:13;3.05;;;2.20;;
36709;SDS011;22694;51.040;3.684;2023-04-03T02:15:40;2.05;;;1.80;;
36709;SDS011;22694;51.040;3.684;2023-04-03T02:18:06;2.60;;;2.20;;
36709;SDS011;22694;51.040;3.684;2023-04-03T02:20:32;2.08;;;1.90;;
36709;SDS011;22694;51.040;3.684;2023-04-03T02:22:58;1.90;;;1.80;;
36709;SDS011;22694;51.040;3.684;2023-04-03T02:25:24;4.60;;;2.55;;
36709;SDS011;22694;51.040;3.684;2023-04-03T02:27:50;2.78;;;2.00;;
36709;SDS011;22694;51.040;3.684;2023-04-03T02:30:15;2.00;;;1.67;;
36709;SDS011;22694;51.040;3.684;2023-04-03T02:32:41;2.83;;;2.17;;
36709;SDS011;22694;51.040;3.684;2023-04-03T02:35:09;3.03;;;1.80;;
36709;SDS011;22694;51.040;3.684;2023-04-03T02:37:35;2.08;;;1.88;;
36709;SDS011;22694;51.040;3.684;2023-04-03T02:40:01;2.95;;;2.08;;
36709;SDS011;22694;51.040;3.684;2023-04-03T02:42:26;1.98;;;1.73;;
36709;SDS011;22694;51.040;3.684;2023-04-03T02:44:52;2.78;;;1.90;;
36709;SDS011;22694;51.040;3.684;2023-04-03T02:47:17;2.58;;;1.90;;
36709;SDS011;22694;51.040;3.684;2023-04-03T02:49:43;2.67;;;2.00;;
36709;SDS011;22694;51.040;3.684;2023-04-03T02:52:11;2.67;;;2.15;;
36709;SDS011;22694;51.040;3.684;2023-04-03T02:54:38;3.38;;;1.92;;
36709;SDS011;22694;51.040;3.684;2023-04-03T02:57:03;2.95;;;2.15;;
36709;SDS011;22694;51.040;3.684;2023-04-03T02:59:29;2.40;;;1.90;;
36709;SDS011;22694;51.040;3.684;2023-04-03T03:01:55;2.05;;;1.85;;
36709;SDS011;22694;51.040;3.684;2023-04-03T03:04:21;2.33;;;2.10;;
36709;SDS011;22694;51.040;3.684;2023-04-03T03:06:47;2.75;;;1.88;;
36709;SDS011;22694;51.040;3.684;2023-04-03T03:09:12;3.05;;;1.88;;
36709;SDS011;22694;51.040;3.684;2023-04-03T03:11:39;2.55;;;2.08;;
36709;SDS011;22694;51.040;3.684;2023-04-03T03:14:05;2.60;;;2.00;;
36709;SDS011;22694;51.040;3.684;2023-04-03T03:16:30;3.38;;;2.13;;
36709;SDS011;22694;51.040;3.684;2023-04-03T03:18:56;2.67;;;2.05;;
36709;SDS011;22694;51.040;3.684;2023-04-03T03:21:22;2.10;;;1.90;;
36709;SDS011;22694;51.040;3.684;2023-04-03T03:23:48;1.92;;;1.70;;
36709;SDS011;22694;51.040;3.684;2023-04-03T03:26:13;2.17;;;1.92;;
36709;SDS011;22694;51.040;3.684;2023-04-03T03:28:39;2.35;;;1.80;;
36709;SDS011;22694;51.040;3.684;2023-04-03T03:31:06;2.33;;;1.90;;
36709;SDS011;22694;51.040;3.684;2023-04-03T03:33:32;1.70;;;1.42;;
36709;SDS011;22694;51.040;3.684;2023-04-03T03:35:58;2.50;;;1.70;;
36709;SDS011;22694;51.040;3.684;2023-04-03T03:38:24;2.03;;;1.73;;
36709;SDS011;22694;51.040;3.684;2023-04-03T03:40:50;4.10;;;2.08;;
36709;SDS011;22694;51.040;3.684;2023-04-03T03:43:16;2.35;;;1.83;;
36709;SDS011;22694;51.040;3.684;2023-04-03T03:45:43;2.65;;;1.90;;
36709;SDS011;22694;51.040;3.684;2023-04-03T03:48:09;4.10;;;1.60;;
36709;SDS011;22694;51.040;3.684;2023-04-03T03:50:35;2.75;;;1.60;;
36709;SDS011;22694;51.040;3.684;2023-04-03T03:53:01;1.92;;;1.73;;
36709;SDS011;22694;51.040;3.684;2023-04-03T03:55:26;2.97;;;2.00;;
36709;SDS011;22694;51.040;3.684;2023-04-03T03:57:52;3.13;;;1.85;;
36709;SDS011;22694;51.040;3.684;2023-04-03T04:00:18;1.90;;;1.60;;
36709;SDS011;22694;51.040;3.684;2023-04-03T04:02:43;2.17;;;1.90;;
36709;SDS011;22694;51.040;3.684;2023-04-03T04:05:09;2.85;;;1.90;;
36709;SDS011;22694;51.040;3.684;2023-04-03T04:07:35;3.78;;;1.83;;
36709;SDS011;22694;51.040;3.684;2023-04-03T04:10:01;4.10;;;1.80;;
36709;SDS011;22694;51.040;3.684;2023-04-03T04:12:27;2.55;;;1.70;;
36709;SDS011;22694;51.040;3.684;2023-04-03T04:14:53;3.00;;;2.20;;
36709;SDS011;22694;51.040;3.684;2023-04-03T04:17:18;2.67;;;1.90;;
36709;SDS011;22694;51.040;3.684;2023-04-03T04:19:44;2.53;;;1.80;;
36709;SDS011;22694;51.040;3.684;2023-04-03T04:22:10;2.45;;;2.00;;
36709;SDS011;22694;51.040;3.684;2023-04-03T04:24:36;2.35;;;2.00;;
36709;SDS011;22694;51.040;3.684;2023-04-03T04:27:02;3.10;;;1.98;;
36709;SDS011;22694;51.040;3.684;2023-04-03T04:29:28;2.97;;;1.73;;
36709;SDS011;22694;51.040;3.684;2023-04-03T04:31:53;2.10;;;1.90;;
36709;SDS011;22694;51.040;3.684;2023-04-03T04:34:19;2.22;;;1.95;;
36709;SDS011;22694;51.040;3.684;2023-04-03T04:36:45;2.30;;;1.70;;
36709;SDS011;22694;51.040;3.684;2023-04-03T04:39:10;2.28;;;2.00;;
36709;SDS011;22694;51.040;3.684;2023-04-03T04:41:36;1.75;;;1.65;;
36709;SDS011;22694;51.040;3.684;2023-04-03T04:44:02;2.00;;;1.80;;
36709;SDS011;22694;51.040;3.684;2023-04-03T04:46:27;2.10;;;1.50;;
36709;SDS011;22694;51.040;3.684;2023-04-03T04:48:53;2.10;;;1.45;;
36709;SDS011;22694;51.040;3.684;2023-04-03T04:51:19;1.60;;;1.50;;
36709;SDS011;22694;51.040;3.684;2023-04-03T04:53:45;2.55;;;1.60;;
36709;SDS011;22694;51.040;3.684;2023-04-03T04:56:10;1.40;;;1.30;;
36709;SDS011;22694;51.040;3.684;2023-04-03T04:58:37;1.60;;;1.50;;
36709;SDS011;22694;51.040;3.684;2023-04-03T05:01:03;1.90;;;1.77;;
36709;SDS011;22694;51.040;3.684;2023-04-03T05:03:30;1.77;;;1.65;;
36709;SDS011;22694;51.040;3.684;2023-04-03T05:05:56;2.20;;;1.83;;
36709;SDS011;22694;51.040;3.684;2023-04-03T05:08:22;1.90;;;1.60;;
36709;SDS011;22694;51.040;3.684;2023-04-03T05:10:48;1.67;;;1.45;;
36709;SDS011;22694;51.040;3.684;2023-04-03T05:13:13;1.58;;;1.23;;
36709;SDS011;22694;51.040;3.684;2023-04-03T05:15:40;2.10;;;1.65;;
36709;SDS011;22694;51.040;3.684;2023-04-03T05:18:06;1.83;;;1.50;;
36709;SDS011;22694;51.040;3.684;2023-04-03T05:20:32;2.42;;;1.80;;
36709;SDS011;22694;51.040;3.684;2023-04-03T05:22:58;2.20;;;1.90;;
36709;SDS011;22694;51.040;3.684;2023-04-03T05:25:24;3.03;;;1.92;;
36709;SDS011;22694;51.040;3.684;2023-04-03T05:27:49;2.50;;;1.95;;
36709;SDS011;22694;51.040;3.684;2023-04-03T05:30:15;2.85;;;1.95;;
36709;SDS011;22694;51.040;3.684;2023-04-03T05:32:41;2.80;;;1.60;;
36709;SDS011;22694;51.040;3.684;2023-04-03T05:35:07;2.53;;;1.90;;
36709;SDS011;22694;51.040;3.684;2023-04-03T05:37:33;2.78;;;1.95;;
36709;SDS011;22694;51.040;3.684;2023-04-03T05:39:59;2.20;;;1.70;;
36709;SDS011;22694;51.040;3.684;2023-04-03T05:42:25;3.22;;;2.00;;
36709;SDS011;22694;51.040;3.684;2023-04-03T05:44:51;2.90;;;2.30;;
36709;SDS011;22694;51.040;3.684;2023-04-03T05:47:17;4.05;;;2.13;;
36709;SDS011;22694;51.040;3.684;2023-04-03T05:49:44;4.43;;;2.58;;
36709;SDS011;22694;51.040;3.684;2023-04-03T05:52:23;2.55;;;2.17;;
36709;SDS011;22694;51.040;3.684;2023-04-03T05:54:51;3.45;;;2.17;;
36709;SDS011;22694;51.040;3.684;2023-04-03T05:57:17;2.63;;;2.05;;
36709;SDS011;22694;51.040;3.684;2023-04-03T05:59:43;4.60;;;2.47;;
36709;SDS011;22694;51.040;3.684;2023-04-03T06:02:18;3.15;;;2.35;;
36709;SDS011;22694;51.040;3.684;2023-04-03T06:04:45;5.10;;;3.15;;
36709;SDS011;22694;51.040;3.684;2023-04-03T06:07:15;2.83;;;2.40;;
36709;SDS011;22694;51.040;3.684;2023-04-03T06:09:47;3.28;;;2.30;;
36709;SDS011;22694;51.040;3.684;2023-04-03T06:12:13;2.88;;;2.47;;
36709;SDS011;22694;51.040;3.684;2023-04-03T06:14:39;3.90;;;2.38;;
36709;SDS011;22694;51.040;3.684;2023-04-03T06:17:06;2.60;;;2.40;;
36709;SDS011;22694;51.040;3.684;2023-04-03T06:19:33;3.15;;;2.63;;
36709;SDS011;22694;51.040;3.684;2023-04-03T06:21:58;2.97;;;2.53;;
36709;SDS011;22694;51.040;3.684;2023-04-03T06:24:25;3.55;;;2.30;;
36709;SDS011;22694;51.040;3.684;2023-04-03T06:26:51;2.80;;;2.50;;
36709;SDS011;22694;51.040;3.684;2023-04-03T06:29:18;3.75;;;2.80;;
36709;SDS011;22694;51.040;3.684;2023-04-03T06:31:45;2.55;;;2.35;;
36709;SDS011;22694;51.040;3.684;2023-04-03T06:34:11;3.92;;;2.65;;
36709;SDS011;22694;51.040;3.684;2023-04-03T06:36:37;3.30;;;2.70;;
36709;SDS011;22694;51.040;3.684;2023-04-03T06:39:03;2.60;;;2.17;;
36709;SDS011;22694;51.040;3.684;2023-04-03T06:41:29;2.95;;;2.40;;
36709;SDS011;22694;51.040;3.684;2023-04-03T06:43:55;5.35;;;3.17;;
36709;SDS011;22694;51.040;3.684;2023-04-03T06:46:23;5.90;;;2.80;;
36709;SDS011;22694;51.040;3.684;2023-04-03T06:48:50;3.13;;;2.60;;
36709;SDS011;22694;51.040;3.684;2023-04-03T06:51:18;2.95;;;2.63;;
36709;SDS011;22694;51.040;3.684;2023-04-03T06:53:49;4.10;;;2.60;;
36709;SDS011;22694;51.040;3.684;2023-04-03T06:56:16;3.20;;;2.65;;
36709;SDS011;22694;51.040;3.684;2023-04-03T06:58:42;2.72;;;2.30;;
36709;SDS011;22694;51.040;3.684;2023-04-03T07:01:09;3.67;;;2.33;;
36709;SDS011;22694;51.040;3.684;2023-04-03T07:03:37;2.30;;;2.10;;
36709;SDS011;22694;51.040;3.684;2023-04-03T07:06:03;3.08;;;2.65;;
36709;SDS011;22694;51.040;3.684;2023-04-03T07:08:30;3.58;;;2.42;;
36709;SDS011;22694;51.040;3.684;2023-04-03T07:10:56;4.28;;;2.25;;
36709;SDS011;22694;51.040;3.684;2023-04-03T07:13:22;4.63;;;3.22;;
36709;SDS011;22694;51.040;3.684;2023-04-03T07:15:48;4.30;;;2.63;;
36709;SDS011;22694;51.040;3.684;2023-04-03T07:18:14;3.63;;;2.40;;
36709;SDS011;22694;51.040;3.684;2023-04-03T07:20:40;2.40;;;2.03;;
36709;SDS011;22694;51.040;3.684;2023-04-03T07:23:06;2.72;;;2.28;;
36709;SDS011;22694;51.040;3.684;2023-04-03T07:25:32;2.72;;;2.47;;
36709;SDS011;22694;51.040;3.684;2023-04-03T07:27:58;4.78;;;2.65;;
36709;SDS011;22694;51.040;3.684;2023-04-03T07:30:24;3.97;;;2.55;;
36709;SDS011;22694;51.040;3.684;2023-04-03T07:32:51;2.60;;;2.38;;
36709;SDS011;22694;51.040;3.684;2023-04-03T07:35:17;2.92;;;2.00;;
36709;SDS011;22694;51.040;3.684;2023-04-03T07:37:42;3.92;;;2.55;;
36709;SDS011;22694;51.040;3.684;2023-04-03T07:40:08;3.97;;;2.50;;
36709;SDS011;22694;51.040;3.684;2023-04-03T07:42:34;3.28;;;2.20;;
36709;SDS011;22694;51.040;3.684;2023-04-03T07:45:01;2.97;;;2.22;;
36709;SDS011;22694;51.040;3.684;2023-04-03T07:47:30;2.63;;;2.10;;
36709;SDS011;22694;51.040;3.684;2023-04-03T07:49:56;3.08;;;2.22;;
36709;SDS011;22694;51.040;3.684;2023-04-03T07:52:23;3.10;;;2.42;;
36709;SDS011;22694;51.040;3.684;2023-04-03T07:54:49;2.97;;;2.35;;
36709;SDS011;22694;51.040;3.684;2023-04-03T07:57:14;2.85;;;2.45;;
36709;SDS011;22694;51.040;3.684;2023-04-03T07:59:41;4.55;;;2.75;;
36709;SDS011;22694;51.040;3.684;2023-04-03T08:02:11;3.20;;;2.50;;
36709;SDS011;22694;51.040;3.684;2023-04-03T08:04:37;2.92;;;2.53;;
36709;SDS011;22694;51.040;3.684;2023-04-03T08:07:03;2.75;;;2.53;;
36709;SDS011;22694;51.040;3.684;2023-04-03T08:09:29;3.25;;;2.65;;
36709;SDS011;22694;51.040;3.684;2023-04-03T08:11:55;2.95;;;2.20;;
36709;SDS011;22694;51.040;3.684;2023-04-03T08:14:20;3.35;;;2.25;;
36709;SDS011;22694;51.040;3.684;2023-04-03T08:16:46;5.63;;;2.50;;
36709;SDS011;22694;51.040;3.684;2023-04-03T08:19:13;5.03;;;2.45;;
36709;SDS011;22694;51.040;3.684;2023-04-03T08:21:40;3.40;;;2.45;;
36709;SDS011;22694;51.040;3.684;2023-04-03T08:24:06;3.38;;;3.08;;
36709;SDS011;22694;51.040;3.684;2023-04-03T08:26:32;4.60;;;2.80;;
36709;SDS011;22694;51.040;3.684;2023-04-03T08:28:58;3.10;;;2.72;;
36709;SDS011;22694;51.040;3.684;2023-04-03T08:31:24;2.85;;;2.58;;
36709;SDS011;22694;51.040;3.684;2023-04-03T08:33:49;3.92;;;2.95;;
36709;SDS011;22694;51.040;3.684;2023-04-03T08:36:19;2.75;;;2.47;;
36709;SDS011;22694;51.040;3.684;2023-04-03T08:38:50;4.65;;;2.80;;
36709;SDS011;22694;51.040;3.684;2023-04-03T08:41:26;4.22;;;2.88;;
36709;SDS011;22694;51.040;3.684;2023-04-03T08:52:12;2.83;;;2.60;;
36709;SDS011;22694;51.040;3.684;2023-04-03T08:57:11;3.50;;;2.65;;
36709;SDS011;22694;51.040;3.684;2023-04-03T08:59:37;2.83;;;2.22;;
36709;SDS011;22694;51.040;3.684;2023-04-03T09:02:13;3.13;;;2.28;;
36709;SDS011;22694;51.040;3.684;2023-04-03T09:04:51;2.42;;;2.20;;
36709;SDS011;22694;51.040;3.684;2023-04-03T09:07:22;3.08;;;2.40;;
36709;SDS011;22694;51.040;3.684;2023-04-03T09:09:59;4.25;;;2.50;;
36709;SDS011;22694;51.040;3.684;2023-04-03T09:12:29;2.50;;;2.30;;
36709;SDS011;22694;51.040;3.684;2023-04-03T09:15:19;3.13;;;2.30;;
36709;SDS011;22694;51.040;3.684;2023-04-03T09:20:49;5.90;;;2.30;;
36709;SDS011;22694;51.040;3.684;2023-04-03T09:23:24;2.55;;;2.10;;
36709;SDS011;22694;51.040;3.684;2023-04-03T09:25:58;2.90;;;2.00;;
36709;SDS011;22694;51.040;3.684;2023-04-03T09:28:30;2.95;;;2.13;;
36709;SDS011;22694;51.040;3.684;2023-04-03T09:31:00;5.22;;;1.80;;
36709;SDS011;22694;51.040;3.684;2023-04-03T09:33:31;2.90;;;1.73;;
36709;SDS011;22694;51.040;3.684;2023-04-03T09:35:58;3.25;;;2.50;;
36709;SDS011;22694;51.040;3.684;2023-04-03T09:38:24;3.47;;;2.08;;
36709;SDS011;22694;51.040;3.684;2023-04-03T09:46:38;3.63;;;1.80;;
36709;SDS011;22694;51.040;3.684;2023-04-03T09:49:04;2.17;;;1.80;;
36709;SDS011;22694;51.040;3.684;2023-04-03T09:51:31;2.70;;;1.52;;
36709;SDS011;22694;51.040;3.684;2023-04-03T09:53:57;3.13;;;1.67;;
36709;SDS011;22694;51.040;3.684;2023-04-03T09:56:25;4.30;;;1.65;;
36709;SDS011;22694;51.040;3.684;2023-04-03T10:04:05;2.78;;;1.67;;
36709;SDS011;22694;51.040;3.684;2023-04-03T10:06:42;2.33;;;1.55;;
36709;SDS011;22694;51.040;3.684;2023-04-03T10:14:36;4.35;;;1.90;;
36709;SDS011;22694;51.040;3.684;2023-04-03T10:17:06;3.33;;;1.42;;
36709;SDS011;22694;51.040;3.684;2023-04-03T10:19:57;3.38;;;1.70;;
36709;SDS011;22694;51.040;3.684;2023-04-03T10:22:42;2.70;;;1.25;;
36709;SDS011;22694;51.040;3.684;2023-04-03T10:28:11;1.90;;;1.58;;
36709;SDS011;22694;51.040;3.684;2023-04-03T10:42:22;2.70;;;1.10;;
36709;SDS011;22694;51.040;3.684;2023-04-03T10:48:04;2.97;;;1.42;;
36709;SDS011;22694;51.040;3.684;2023-04-03T10:56:20;1.77;;;1.10;;
36709;SDS011;22694;51.040;3.684;2023-04-03T10:58:54;1.45;;;1.17;;
36709;SDS011;22694;51.040;3.684;2023-04-03T11:01:29;2.10;;;1.00;;
36709;SDS011;22694;51.040;3.684;2023-04-03T11:03:59;2.13;;;1.33;;
36709;SDS011;22694;51.040;3.684;2023-04-03T11:06:28;1.05;;;0.90;;
36709;SDS011;22694;51.040;3.684;2023-04-03T11:09:02;1.75;;;1.13;;
36709;SDS011;22694;51.040;3.684;2023-04-03T11:11:37;0.85;;;0.70;;
36709;SDS011;22694;51.040;3.684;2023-04-03T11:14:09;1.98;;;0.82;;
36709;SDS011;22694;51.040;3.684;2023-04-03T11:19:48;1.60;;;0.98;;
36709;SDS011;22694;51.040;3.684;2023-04-03T11:22:27;1.08;;;0.93;;
36709;SDS011;22694;51.040;3.684;2023-04-03T11:25:02;1.25;;;0.75;;
36709;SDS011;22694;51.040;3.684;2023-04-03T11:35:45;0.75;;;0.70;;
36709;SDS011;22694;51.040;3.684;2023-04-03T11:38:49;1.65;;;0.93;;
36709;SDS011;22694;51.040;3.684;2023-04-03T11:41:09;2.38;;;0.90;;
36709;SDS011;22694;51.040;3.684;2023-04-03T11:43:55;1.40;;;0.77;;
36709;SDS011;22694;51.040;3.684;2023-04-03T11:46:22;2.22;;;0.90;;
36709;SDS011;22694;51.040;3.684;2023-04-03T11:52:53;2.03;;;0.73;;
36709;SDS011;22694;51.040;3.684;2023-04-03T12:13:39;0.82;;;0.55;;
36709;SDS011;22694;51.040;3.684;2023-04-03T12:16:22;1.95;;;0.93;;
36709;SDS011;22694;51.040;3.684;2023-04-03T12:27:01;1.25;;;0.80;;
36709;SDS011;22694;51.040;3.684;2023-04-03T12:35:10;0.63;;;0.32;;
36709;SDS011;22694;51.040;3.684;2023-04-03T12:46:26;1.75;;;0.80;;
36709;SDS011;22694;51.040;3.684;2023-04-03T12:49:02;0.93;;;0.63;;
36709;SDS011;22694;51.040;3.684;2023-04-03T12:51:47;1.08;;;0.60;;
36709;SDS011;22694;51.040;3.684;2023-04-03T12:54:14;1.65;;;0.60;;
36709;SDS011;22694;51.040;3.684;2023-04-03T12:59:42;1.10;;;0.70;;
36709;SDS011;22694;51.040;3.684;2023-04-03T13:02:20;0.90;;;0.68;;
36709;SDS011;22694;51.040;3.684;2023-04-03T13:04:49;0.93;;;0.65;;
36709;SDS011;22694;51.040;3.684;2023-04-03T13:07:22;1.33;;;0.70;;
36709;SDS011;22694;51.040;3.684;2023-04-03T13:10:00;1.20;;;0.50;;
36709;SDS011;22694;51.040;3.684;2023-04-03T13:12:26;1.52;;;0.80;;
36709;SDS011;22694;51.040;3.684;2023-04-03T13:14:53;0.73;;;0.70;;
36709;SDS011;22694;51.040;3.684;2023-04-03T13:17:23;1.85;;;0.80;;
36709;SDS011;22694;51.040;3.684;2023-04-03T13:19:49;0.70;;;0.65;;
36709;SDS011;22694;51.040;3.684;2023-04-03T13:25:05;1.65;;;0.70;;
36709;SDS011;22694;51.040;3.684;2023-04-03T13:27:34;1.65;;;0.70;;
36709;SDS011;22694;51.040;3.684;2023-04-03T13:30:00;0.90;;;0.60;;
36709;SDS011;22694;51.040;3.684;2023-04-03T13:32:28;1.33;;;0.70;;
36709;SDS011;22694;51.040;3.684;2023-04-03T13:34:56;0.73;;;0.55;;
36709;SDS011;22694;51.040;3.684;2023-04-03T13:37:25;0.85;;;0.80;;
36709;SDS011;22694;51.040;3.684;2023-04-03T13:42:34;2.38;;;0.68;;
36709;SDS011;22694;51.040;3.684;2023-04-03T13:45:21;1.38;;;0.65;;
36709;SDS011;22694;51.040;3.684;2023-04-03T13:47:51;1.13;;;0.43;;
36709;SDS011;22694;51.040;3.684;2023-04-03T13:53:20;1.70;;;0.70;;
36709;SDS011;22694;51.040;3.684;2023-04-03T13:55:59;1.65;;;0.90;;
36709;SDS011;22694;51.040;3.684;2023-04-03T13:58:29;1.00;;;0.50;;
36709;SDS011;22694;51.040;3.684;2023-04-03T14:03:32;1.90;;;0.90;;
36709;SDS011;22694;51.040;3.684;2023-04-03T14:06:18;2.78;;;1.00;;
36709;SDS011;22694;51.040;3.684;2023-04-03T14:08:44;4.50;;;1.08;;
36709;SDS011;22694;51.040;3.684;2023-04-03T14:11:15;2.65;;;0.70;;
36709;SDS011;22694;51.040;3.684;2023-04-03T14:13:43;10.07;;;2.58;;
36709;SDS011;22694;51.040;3.684;2023-04-03T14:16:15;8.73;;;2.22;;
36709;SDS011;22694;51.040;3.684;2023-04-03T14:18:44;5.95;;;1.63;;
36709;SDS011;22694;51.040;3.684;2023-04-03T14:21:12;7.10;;;1.70;;
36709;SDS011;22694;51.040;3.684;2023-04-03T14:23:39;6.40;;;1.73;;
36709;SDS011;22694;51.040;3.684;2023-04-03T14:26:09;3.33;;;1.20;;
36709;SDS011;22694;51.040;3.684;2023-04-03T14:28:41;4.97;;;1.55;;
36709;SDS011;22694;51.040;3.684;2023-04-03T14:31:07;6.40;;;1.40;;
36709;SDS011;22694;51.040;3.684;2023-04-03T14:33:35;2.95;;;1.10;;
36709;SDS011;22694;51.040;3.684;2023-04-03T14:36:02;4.28;;;1.30;;
36709;SDS011;22694;51.040;3.684;2023-04-03T14:38:41;3.88;;;1.20;;
36709;SDS011;22694;51.040;3.684;2023-04-03T14:41:10;2.67;;;1.23;;
36709;SDS011;22694;51.040;3.684;2023-04-03T14:43:38;2.28;;;0.88;;
36709;SDS011;22694;51.040;3.684;2023-04-03T14:46:04;2.10;;;1.13;;
36709;SDS011;22694;51.040;3.684;2023-04-03T14:48:36;2.70;;;1.20;;
36709;SDS011;22694;51.040;3.684;2023-04-03T14:51:01;2.65;;;1.00;;
36709;SDS011;22694;51.040;3.684;2023-04-03T14:53:27;2.45;;;0.82;;
36709;SDS011;22694;51.040;3.684;2023-04-03T14:55:54;2.35;;;1.02;;
36709;SDS011;22694;51.040;3.684;2023-04-03T14:58:20;2.58;;;1.15;;
36709;SDS011;22694;51.040;3.684;2023-04-03T15:00:46;2.53;;;0.90;;
36709;SDS011;22694;51.040;3.684;2023-04-03T15:03:20;2.92;;;0.73;;
36709;SDS011;22694;51.040;3.684;2023-04-03T15:05:47;0.98;;;0.82;;
36709;SDS011;22694;51.040;3.684;2023-04-03T15:08:17;1.13;;;0.73;;
36709;SDS011;22694;51.040;3.684;2023-04-03T15:10:49;2.10;;;0.93;;
36709;SDS011;22694;51.040;3.684;2023-04-03T15:13:15;1.63;;;0.90;;
36709;SDS011;22694;51.040;3.684;2023-04-03T15:15:41;1.70;;;0.90;;
36709;SDS011;22694;51.040;3.684;2023-04-03T15:18:09;1.83;;;0.93;;
36709;SDS011;22694;51.040;3.684;2023-04-03T15:20:40;4.15;;;1.27;;
36709;SDS011;22694;51.040;3.684;2023-04-03T15:23:06;4.45;;;1.27;;
36709;SDS011;22694;51.040;3.684;2023-04-03T15:25:32;5.32;;;1.50;;
36709;SDS011;22694;51.040;3.684;2023-04-03T15:27:57;3.20;;;1.48;;
36709;SDS011;22694;51.040;3.684;2023-04-03T15:30:24;1.23;;;0.90;;
36709;SDS011;22694;51.040;3.684;2023-04-03T15:32:50;4.07;;;1.10;;
36709;SDS011;22694;51.040;3.684;2023-04-03T15:35:16;2.30;;;1.15;;
36709;SDS011;22694;51.040;3.684;2023-04-03T15:37:42;4.55;;;1.20;;
36709;SDS011;22694;51.040;3.684;2023-04-03T15:40:08;3.20;;;1.02;;
36709;SDS011;22694;51.040;3.684;2023-04-03T15:42:34;3.25;;;1.60;;
36709;SDS011;22694;51.040;3.684;2023-04-03T15:45:00;1.63;;;1.10;;
36709;SDS011;22694;51.040;3.684;2023-04-03T15:47:26;1.73;;;1.20;;
36709;SDS011;22694;51.040;3.684;2023-04-03T15:49:52;3.10;;;1.02;;
36709;SDS011;22694;51.040;3.684;2023-04-03T15:52:19;2.08;;;1.10;;
36709;SDS011;22694;51.040;3.684;2023-04-03T15:54:45;3.58;;;1.05;;
36709;SDS011;22694;51.040;3.684;2023-04-03T15:57:10;3.53;;;0.93;;
36709;SDS011;22694;51.040;3.684;2023-04-03T15:59:36;3.03;;;1.08;;
36709;SDS011;22694;51.040;3.684;2023-04-03T16:02:02;1.80;;;0.90;;
36709;SDS011;22694;51.040;3.684;2023-04-03T16:04:31;3.55;;;1.17;;
36709;SDS011;22694;51.040;3.684;2023-04-03T16:07:01;3.15;;;1.02;;
36709;SDS011;22694;51.040;3.684;2023-04-03T16:09:27;1.15;;;0.73;;
36709;SDS011;22694;51.040;3.684;2023-04-03T16:11:53;4.35;;;0.98;;
36709;SDS011;22694;51.040;3.684;2023-04-03T16:14:19;2.70;;;1.10;;
36709;SDS011;22694;51.040;3.684;2023-04-03T16:16:45;1.85;;;1.15;;
36709;SDS011;22694;51.040;3.684;2023-04-03T16:19:10;2.75;;;1.15;;
36709;SDS011;22694;51.040;3.684;2023-04-03T16:21:36;1.60;;;0.95;;
36709;SDS011;22694;51.040;3.684;2023-04-03T16:24:02;2.08;;;1.00;;
36709;SDS011;22694;51.040;3.684;2023-04-03T16:26:28;3.45;;;1.30;;
36709;SDS011;22694;51.040;3.684;2023-04-03T16:28:54;3.13;;;0.70;;
36709;SDS011;22694;51.040;3.684;2023-04-03T16:31:20;1.67;;;0.80;;
36709;SDS011;22694;51.040;3.684;2023-04-03T16:33:46;2.30;;;0.85;;
36709;SDS011;22694;51.040;3.684;2023-04-03T16:36:12;2.22;;;1.10;;
36709;SDS011;22694;51.040;3.684;2023-04-03T16:38:38;2.03;;;0.93;;
36709;SDS011;22694;51.040;3.684;2023-04-03T16:41:03;1.48;;;0.70;;
36709;SDS011;22694;51.040;3.684;2023-04-03T16:43:32;1.35;;;0.80;;
36709;SDS011;22694;51.040;3.684;2023-04-03T16:45:58;1.67;;;0.93;;
36709;SDS011;22694;51.040;3.684;2023-04-03T16:48:26;2.17;;;1.00;;
36709;SDS011;22694;51.040;3.684;2023-04-03T16:50:53;1.05;;;0.60;;
36709;SDS011;22694;51.040;3.684;2023-04-03T16:53:22;1.33;;;0.88;;
36709;SDS011;22694;51.040;3.684;2023-04-03T16:55:48;0.88;;;0.60;;
36709;SDS011;22694;51.040;3.684;2023-04-03T16:58:15;1.98;;;0.70;;
36709;SDS011;22694;51.040;3.684;2023-04-03T17:00:41;1.45;;;0.80;;